KLHQ

Fairfield County Airport

Lancaster, Ohio, USA
METAR KLHQ 220010Z AUTO 02012KT 7SM RA OVC013 07/05 A3049 RMK AO2 RAB04 P0001 T00670050
Observed Flight Rules
Feb-22 @ 00:10 UTC (4 hours ago) Marginal Visual Flight Rules
Wind Visibility Clouds Conditions
20° at 12 knots 7 miles
  • Overcast at 1,300' AGL
  • Rain
Temperatures Readings Precipitation
Current 7°C / 45°F
Dewpoint 5°C / 41°F
Humidity 87%
Altimeter 30.49" Hg
Pressure 1033 hPa
Elevation 260
Current Rain 0.01
METAR KLHQ 220010Z AUTO 02012KT 7SM RA OVC013 07/05 A3049 RMK AO2 RAB04 P0001 T00670050
Observed Flight Rules
Feb-22 @ 00:10 UTC
(4 hours ago)
MVFR
Wind Visibility
20° at 12 knots 7 miles
Clouds
  • Overcast at 1,300' AGL
Conditions
  • Rain
Temperature Dewpoint
7°C / 45°F 5°C / 41°F
Humidity Altimeter Pressure
87% 30.49" Hg 1033 hPa
Current Rain
0.01